createdAt,value
2023-07-27T00:00:24.238Z,0.19
2023-07-27T00:02:04.085Z,0.19
2023-07-27T00:03:43.809Z,0.18
2023-07-27T00:05:23.498Z,0.19
2023-07-27T00:07:03.320Z,0.16
2023-07-27T00:08:43.141Z,0.16
2023-07-27T00:10:22.876Z,0.16
2023-07-27T00:12:02.656Z,0.16
2023-07-27T00:13:42.399Z,0.17
2023-07-27T00:15:22.079Z,0.19
2023-07-27T00:17:01.671Z,0.16
2023-07-27T00:18:41.423Z,0.15
2023-07-27T00:20:21.285Z,0.17
2023-07-27T00:22:01.117Z,0.18
2023-07-27T00:23:40.962Z,0.16
2023-07-27T00:25:20.592Z,0.17
2023-07-27T00:27:00.261Z,0.19
2023-07-27T00:28:40.268Z,0.17
2023-07-27T00:30:19.797Z,0.18
2023-07-27T00:31:59.816Z,0.17
2023-07-27T00:33:39.524Z,0.19
2023-07-27T00:35:19.272Z,0.17
2023-07-27T00:36:59.080Z,0.19
2023-07-27T00:38:38.847Z,0.18
2023-07-27T00:40:18.599Z,0.17
2023-07-27T00:41:58.417Z,0.17
2023-07-27T00:43:38.012Z,0.17
2023-07-27T00:45:17.702Z,0.15
2023-07-27T00:46:57.792Z,0.17
2023-07-27T00:48:37.244Z,0.18
2023-07-27T00:50:17.048Z,0.18
2023-07-27T00:51:56.817Z,0.16
2023-07-27T00:53:36.710Z,0.19
2023-07-27T00:55:16.309Z,0.18
2023-07-27T00:56:56.206Z,0.17
2023-07-27T00:58:35.904Z,0.16
2023-07-27T01:00:15.647Z,0.18
2023-07-27T01:01:55.383Z,0.18
2023-07-27T01:03:35.158Z,0.19
2023-07-27T01:05:14.919Z,0.17
2023-07-27T01:06:54.930Z,0.19
2023-07-27T01:08:34.446Z,0.17
2023-07-27T01:10:14.348Z,0.17
2023-07-27T01:11:53.982Z,0.17
2023-07-27T01:13:33.742Z,0.18
2023-07-27T01:15:13.516Z,0.16
2023-07-27T01:16:53.273Z,0.19
2023-07-27T01:18:33.054Z,0.18
2023-07-27T01:20:12.818Z,0.16
2023-07-27T01:21:52.575Z,0.18
2023-07-27T01:23:32.376Z,0.19
2023-07-27T01:25:12.166Z,0.16
2023-07-27T01:26:52.200Z,0.16
2023-07-27T01:28:31.672Z,0.16
2023-07-27T01:30:11.433Z,0.17
2023-07-27T01:31:51.191Z,0.16
2023-07-27T01:33:31.102Z,0.16
2023-07-27T01:35:10.732Z,0.17
2023-07-27T01:36:50.512Z,0.18
2023-07-27T01:38:30.276Z,0.19
2023-07-27T01:40:10.063Z,0.17
2023-07-27T01:41:49.831Z,0.19
2023-07-27T01:43:29.568Z,0.17
2023-07-27T01:45:09.337Z,0.16
2023-07-27T01:46:49.178Z,0.16
2023-07-27T01:48:28.889Z,0.2
2023-07-27T01:50:08.668Z,0.19
2023-07-27T01:51:48.421Z,0.2
2023-07-27T01:53:28.232Z,0.21
2023-07-27T01:55:07.997Z,0.21
2023-07-27T01:56:47.826Z,0.2
2023-07-27T01:58:27.536Z,0.22
2023-07-27T02:00:07.233Z,0.2
2023-07-27T02:01:47.015Z,0.2
2023-07-27T02:03:26.789Z,0.21
2023-07-27T02:05:06.549Z,0.22
2023-07-27T02:06:46.340Z,0.24
2023-07-27T02:08:26.127Z,0.25
2023-07-27T02:10:05.910Z,0.26
2023-07-27T02:11:45.744Z,0.29
2023-07-27T02:13:25.385Z,0.31
2023-07-27T02:15:05.229Z,0.36
2023-07-27T02:16:45.166Z,0.44
2023-07-27T02:18:24.766Z,0.47
2023-07-27T02:20:04.573Z,0.54
2023-07-27T02:21:44.378Z,0.63
2023-07-27T02:23:24.092Z,0.81
2023-07-27T02:25:03.745Z,0.93
2023-07-27T02:26:43.526Z,1.12
2023-07-27T02:28:23.365Z,1.39
2023-07-27T02:30:03.062Z,1.68
2023-07-27T02:31:42.838Z,2.05
2023-07-27T02:33:22.599Z,2.53
2023-07-27T02:35:02.368Z,3.07
2023-07-27T02:36:42.402Z,3.8
2023-07-27T02:38:21.961Z,4.64
2023-07-27T02:40:01.664Z,5.65
2023-07-27T02:41:41.434Z,6.9
2023-07-27T02:43:21.200Z,8.35
2023-07-27T02:45:00.959Z,10.09
2023-07-27T02:46:40.994Z,12.1
2023-07-27T02:48:20.512Z,14.42
2023-07-27T02:50:00.311Z,17.14
2023-07-27T02:51:40.037Z,20.29
2023-07-27T02:53:19.794Z,23.76
2023-07-27T02:54:59.599Z,25.72
2023-07-27T02:56:39.328Z,26.79
2023-07-27T02:58:19.113Z,26.83
2023-07-27T02:59:58.908Z,26.86
2023-07-27T03:01:38.715Z,26.86
2023-07-27T03:03:18.448Z,26.81
2023-07-27T03:04:58.213Z,26.9
2023-07-27T03:06:38.224Z,26.9
2023-07-27T03:08:17.723Z,26.9
2023-07-27T03:09:57.503Z,26.92
2023-07-27T03:11:37.293Z,26.92
2023-07-27T03:13:17.022Z,26.92
2023-07-27T03:14:56.967Z,26.94
2023-07-27T03:16:36.794Z,26.94
2023-07-27T03:18:16.316Z,26.94
2023-07-27T03:19:56.081Z,26.96
2023-07-27T03:21:35.918Z,26.95
2023-07-27T03:23:15.693Z,26.97
2023-07-27T03:24:55.379Z,26.97
2023-07-27T03:26:35.418Z,26.97
2023-07-27T03:28:15.009Z,26.82
2023-07-27T03:29:54.785Z,26.99
2023-07-27T03:31:34.460Z,27
2023-07-27T03:33:14.237Z,27
2023-07-27T03:34:53.993Z,27.03
2023-07-27T03:36:33.752Z,27.03
2023-07-27T03:38:13.615Z,27.04
2023-07-27T03:39:53.394Z,27.05
2023-07-27T03:41:33.071Z,27.06
2023-07-27T03:43:12.834Z,27.07
2023-07-27T03:44:52.613Z,27.08
2023-07-27T03:46:32.664Z,27.09
2023-07-27T03:48:12.174Z,27.09
2023-07-27T03:49:51.971Z,27.12
2023-07-27T03:51:31.731Z,27.13
2023-07-27T03:53:11.461Z,27.12
2023-07-27T03:54:51.218Z,27.16
2023-07-27T03:56:30.987Z,35.07
2023-07-27T03:58:10.816Z,35.59
2023-07-27T03:59:50.554Z,27.21
2023-07-27T04:01:30.383Z,27.24
2023-07-27T04:03:10.072Z,27.24
2023-07-27T04:04:49.829Z,27.26
2023-07-27T04:06:29.864Z,27.26
2023-07-27T04:08:09.397Z,27.29
2023-07-27T04:09:49.209Z,27.31
2023-07-27T04:11:28.992Z,27.32
2023-07-27T04:13:08.794Z,27.33
2023-07-27T04:14:48.566Z,27.35
2023-07-27T04:16:28.410Z,27.37
2023-07-27T04:18:08.015Z,27.39
2023-07-27T04:19:47.769Z,27.28
2023-07-27T04:21:27.542Z,27.43
2023-07-27T04:23:07.314Z,27.45
2023-07-27T04:24:47.083Z,27.47
2023-07-27T04:26:27.117Z,27.5
2023-07-27T04:28:06.783Z,27.52
2023-07-27T04:33:05.939Z,27.61
2023-07-27T04:36:25.714Z,27.69
2023-07-27T04:41:24.797Z,27.84
2023-07-27T04:42:07.021Z,27.53
2023-07-27T04:42:07.044Z,27.58
2023-07-27T04:42:07.058Z,27.65
2023-07-27T04:42:07.091Z,27.79
2023-07-27T04:42:07.113Z,27.73
2023-07-27T04:43:04.551Z,27.9
2023-07-27T04:44:44.369Z,27.96
2023-07-27T04:49:43.869Z,28.23
2023-07-27T04:51:23.406Z,28.31
2023-07-27T04:53:03.301Z,28.38
2023-07-27T04:54:42.940Z,28.46
2023-07-27T04:56:23.023Z,28.52
2023-07-27T04:58:02.583Z,71.37
2023-07-27T04:59:42.305Z,74.73
2023-07-27T05:01:22.104Z,72.74
2023-07-27T05:03:01.894Z,72.16
2023-07-27T05:04:41.618Z,73
2023-07-27T05:06:21.577Z,73.17
2023-07-27T05:08:01.254Z,74.15
2023-07-27T05:09:40.918Z,74.74
2023-07-27T05:11:20.787Z,79.75
2023-07-27T05:13:00.432Z,80.97
2023-07-27T05:14:40.194Z,81.57
2023-07-27T05:16:20.218Z,82.07
2023-07-27T05:17:59.778Z,82.21
2023-07-27T05:19:39.732Z,79.66
2023-07-27T05:21:19.310Z,80.69
2023-07-27T05:22:59.168Z,81.1
2023-07-27T05:24:38.826Z,83.75
2023-07-27T05:26:18.771Z,78.62
2023-07-27T05:27:58.358Z,78.61
2023-07-27T05:29:38.182Z,84.35
2023-07-27T05:31:17.899Z,84.48
2023-07-27T05:32:57.671Z,84.17
2023-07-27T05:34:37.551Z,84.38
2023-07-27T05:36:17.278Z,83.3
2023-07-27T05:37:56.977Z,84.86
2023-07-27T05:39:36.751Z,85.21
2023-07-27T05:41:16.550Z,85.44
2023-07-27T05:42:56.278Z,85.55
2023-07-27T05:44:36.054Z,85.51
2023-07-27T05:46:15.941Z,85.47
2023-07-27T05:47:55.606Z,85.39
2023-07-27T05:49:35.414Z,85.36
2023-07-27T05:51:15.176Z,85.3
2023-07-27T05:52:54.924Z,85.26
2023-07-27T05:54:34.790Z,84.88
2023-07-27T05:56:14.454Z,85.11
2023-07-27T05:57:54.532Z,85.08
2023-07-27T05:59:34.016Z,85.16
2023-07-27T06:01:13.966Z,85.22
2023-07-27T06:02:53.932Z,85.19
2023-07-27T06:04:33.645Z,85.07
2023-07-27T06:06:13.234Z,85.07
2023-07-27T06:07:53.047Z,83.93
2023-07-27T06:09:32.813Z,84.76
2023-07-27T06:11:12.592Z,83.26
2023-07-27T06:12:52.352Z,84.04
2023-07-27T06:14:32.142Z,85.32
2023-07-27T06:16:11.907Z,83.97
2023-07-27T06:17:51.786Z,82.65
2023-07-27T06:19:31.242Z,83.33
2023-07-27T06:21:11.226Z,83.57
2023-07-27T06:22:51.034Z,84.67
2023-07-27T06:24:30.663Z,83.83
2023-07-27T06:26:10.317Z,84.55
2023-07-27T06:27:50.127Z,84.99
2023-07-27T06:29:29.924Z,85.09
2023-07-27T06:31:09.873Z,85.19
2023-07-27T06:32:49.548Z,83.62
2023-07-27T06:34:29.494Z,83.58
2023-07-27T06:36:09.128Z,85.6
2023-07-27T06:37:48.903Z,85.24
2023-07-27T06:39:28.620Z,84.38
2023-07-27T06:41:08.396Z,84.95
2023-07-27T06:42:48.121Z,85.33
2023-07-27T06:44:27.952Z,85.37
2023-07-27T06:46:07.655Z,84.29
2023-07-27T06:47:47.470Z,84.67
2023-07-27T06:49:27.116Z,83.37
2023-07-27T06:51:07.064Z,83.36
2023-07-27T06:52:46.759Z,84.9
2023-07-27T06:54:26.543Z,85.54
2023-07-27T06:56:06.260Z,86.05
2023-07-27T06:57:46.168Z,83.59
2023-07-27T06:59:25.799Z,82.72
2023-07-27T07:01:05.548Z,84.59
2023-07-27T07:02:45.412Z,82.27
2023-07-27T07:04:25.104Z,83.31
2023-07-27T07:06:05.056Z,85.9
2023-07-27T07:07:44.781Z,84.11
2023-07-27T07:09:24.478Z,85.58
2023-07-27T07:11:04.128Z,84.93
2023-07-27T07:12:43.917Z,84.89
2023-07-27T07:14:23.858Z,85.5
2023-07-27T07:16:03.451Z,84.87
2023-07-27T07:17:43.315Z,84.49
2023-07-27T07:19:22.958Z,85.21
2023-07-27T07:21:02.849Z,84.78
2023-07-27T07:22:42.668Z,85.02
2023-07-27T07:24:22.523Z,84.92
2023-07-27T07:26:02.215Z,84.85
2023-07-27T07:27:41.973Z,84.34
2023-07-27T07:29:21.822Z,84.12
2023-07-27T07:31:01.512Z,81.61
2023-07-27T07:32:41.240Z,82.73
2023-07-27T07:34:20.917Z,84.17
2023-07-27T07:36:00.733Z,84.26
2023-07-27T07:37:40.473Z,84.01
2023-07-27T07:39:20.453Z,84.12
2023-07-27T07:41:00.182Z,84.42
2023-07-27T07:42:39.914Z,83.63
2023-07-27T07:44:19.739Z,82.44
2023-07-27T07:45:59.392Z,83.07
2023-07-27T07:47:39.255Z,81.78
2023-07-27T07:49:18.840Z,82.54
2023-07-27T07:50:58.609Z,83.77
2023-07-27T07:52:38.445Z,83.74
2023-07-27T07:54:18.337Z,81.93
2023-07-27T07:55:57.985Z,81.55
2023-07-27T07:57:37.827Z,81.51
2023-07-27T07:59:17.647Z,81.73
2023-07-27T08:00:57.432Z,81.98
2023-07-27T08:02:37.257Z,82.12
2023-07-27T08:04:16.962Z,82.05
2023-07-27T08:05:56.685Z,81.87
2023-07-27T08:07:36.612Z,81.75
2023-07-27T08:09:16.364Z,81.53
2023-07-27T08:10:56.125Z,83.09
2023-07-27T08:12:35.780Z,83.14
2023-07-27T08:14:15.697Z,83.37
2023-07-27T08:15:55.384Z,83.64
2023-07-27T08:17:35.172Z,83.9
2023-07-27T08:19:14.955Z,84.18
2023-07-27T08:20:54.594Z,84.39
2023-07-27T08:22:34.531Z,84.43
2023-07-27T08:24:13.997Z,84.47
2023-07-27T08:25:53.770Z,84.44
2023-07-27T08:27:33.630Z,84.48
2023-07-27T08:29:13.458Z,84.53
2023-07-27T08:30:53.084Z,84.5
2023-07-27T08:32:32.895Z,84.44
2023-07-27T08:34:12.708Z,84.29
2023-07-27T08:35:52.497Z,84.15
2023-07-27T08:37:32.250Z,84.3
2023-07-27T08:39:11.953Z,84.31
2023-07-27T08:40:51.718Z,84.11
2023-07-27T08:42:31.481Z,83.85
2023-07-27T08:44:11.511Z,83.64
2023-07-27T08:45:51.318Z,83.55
2023-07-27T08:47:31.022Z,83.47
2023-07-27T08:49:10.565Z,83.41
2023-07-27T08:50:50.344Z,83.16
2023-07-27T08:52:30.318Z,83.18
2023-07-27T08:54:09.874Z,83.22
2023-07-27T08:55:49.642Z,83.21
2023-07-27T08:57:29.428Z,83.37
2023-07-27T08:59:09.244Z,83.35
2023-07-27T09:00:48.954Z,83.28
2023-07-27T09:02:28.721Z,83.38
2023-07-27T09:04:08.583Z,83.62
2023-07-27T09:05:48.380Z,83.94
2023-07-27T09:07:28.204Z,84.21
2023-07-27T09:09:07.802Z,84.17
2023-07-27T09:10:47.593Z,83.91
2023-07-27T09:12:27.379Z,83.78
2023-07-27T09:14:07.265Z,83.73
2023-07-27T09:15:46.917Z,83.62
2023-07-27T09:17:26.646Z,83.52
2023-07-27T09:19:06.431Z,83.68
2023-07-27T09:20:46.191Z,84.01
2023-07-27T09:22:25.986Z,84.32
2023-07-27T09:24:05.747Z,84.42
2023-07-27T09:25:45.515Z,84.46
2023-07-27T09:27:25.284Z,84.67
2023-07-27T09:29:05.052Z,84.76
2023-07-27T09:30:44.833Z,84.59
2023-07-27T09:32:24.602Z,84.3
2023-07-27T09:34:04.402Z,84.14
2023-07-27T09:35:44.141Z,83.98
2023-07-27T09:37:24.178Z,84.08
2023-07-27T09:39:03.910Z,83.7
2023-07-27T09:40:43.550Z,83.53
2023-07-27T09:42:23.376Z,83.69
2023-07-27T09:44:02.989Z,83.97
2023-07-27T09:45:42.761Z,84.14
2023-07-27T09:47:22.542Z,84.04
2023-07-27T09:49:02.297Z,83.94
2023-07-27T09:50:42.092Z,84.01
2023-07-27T09:52:22.203Z,84.28
2023-07-27T09:54:01.793Z,84.41
2023-07-27T09:55:41.577Z,84.63
2023-07-27T09:57:21.168Z,84.9
2023-07-27T09:59:01.206Z,84.89
2023-07-27T10:00:40.794Z,84.87
2023-07-27T10:02:20.559Z,85.03
2023-07-27T10:04:00.228Z,85.2
2023-07-27T10:05:39.994Z,85.67
2023-07-27T10:07:19.786Z,85.72
2023-07-27T10:08:59.540Z,85.92
2023-07-27T10:10:39.328Z,84.85
2023-07-27T10:12:19.094Z,84.58
2023-07-27T10:13:58.861Z,84.62
2023-07-27T10:15:38.798Z,84.65
2023-07-27T10:17:18.642Z,84.55
2023-07-27T10:18:58.208Z,84.63
2023-07-27T10:20:38.054Z,84.64
2023-07-27T10:22:17.899Z,84.68
2023-07-27T10:23:57.649Z,84.75
2023-07-27T10:25:37.260Z,84.87
2023-07-27T10:27:17.019Z,84.88
2023-07-27T10:28:56.795Z,84.83
2023-07-27T10:30:36.563Z,84.8
2023-07-27T10:32:16.331Z,85.08
2023-07-27T10:33:56.099Z,85.28
2023-07-27T10:35:35.869Z,84.85
2023-07-27T10:37:15.654Z,84.66
2023-07-27T10:38:55.414Z,84.61
2023-07-27T10:40:35.178Z,84.87
2023-07-27T10:42:14.954Z,84.79
2023-07-27T10:43:54.727Z,84.73
2023-07-27T10:45:34.503Z,84.72
2023-07-27T10:47:14.287Z,84.58
2023-07-27T10:48:54.040Z,84.65
2023-07-27T10:50:33.817Z,85.03
2023-07-27T10:52:13.574Z,84.8
2023-07-27T10:53:53.351Z,84.44
2023-07-27T10:55:33.123Z,84.58
2023-07-27T10:57:12.896Z,84.06
2023-07-27T10:58:52.662Z,83.28
2023-07-27T11:00:32.451Z,82.9
2023-07-27T11:02:12.200Z,82.71
2023-07-27T11:03:51.989Z,83.07
2023-07-27T11:05:31.756Z,82.98
2023-07-27T11:07:11.563Z,82.89
2023-07-27T11:08:51.298Z,83.01
2023-07-27T11:10:31.067Z,82.95
2023-07-27T11:12:10.825Z,82.88
2023-07-27T11:13:50.599Z,82.71
2023-07-27T11:15:30.366Z,82.34
2023-07-27T11:17:10.136Z,82.05
2023-07-27T11:18:49.918Z,82.02
2023-07-27T11:20:29.674Z,82.11
2023-07-27T11:22:09.463Z,82.64
2023-07-27T11:23:49.214Z,82.97
2023-07-27T11:25:28.999Z,83.37
2023-07-27T11:27:08.770Z,83.78
2023-07-27T11:28:48.531Z,83.73
2023-07-27T11:30:28.313Z,83.66
2023-07-27T11:32:08.098Z,83.73
2023-07-27T11:33:47.843Z,83.94
2023-07-27T11:35:27.646Z,83.81
2023-07-27T11:37:07.392Z,83.95
2023-07-27T11:38:47.169Z,84.49
2023-07-27T11:40:26.937Z,84.92
2023-07-27T11:42:06.695Z,85.06
2023-07-27T11:43:46.477Z,85.19
2023-07-27T11:45:26.252Z,85.25
2023-07-27T11:47:06.008Z,85.2
2023-07-27T11:48:45.776Z,85.19
2023-07-27T11:50:25.552Z,85.29
2023-07-27T11:52:05.336Z,85.3
2023-07-27T11:53:45.260Z,85.44
2023-07-27T11:55:25.080Z,85.67
2023-07-27T11:57:04.630Z,85.79
2023-07-27T11:58:44.566Z,85.56
2023-07-27T12:00:24.173Z,85.35
2023-07-27T12:02:04.001Z,85.2
2023-07-27T12:03:43.710Z,85
2023-07-27T12:05:23.490Z,84.89
2023-07-27T12:07:03.278Z,84.61
2023-07-27T12:08:43.030Z,84.76
2023-07-27T12:10:22.805Z,85.07
2023-07-27T12:12:02.559Z,85.35
2023-07-27T12:13:42.337Z,85.58
2023-07-27T12:15:22.105Z,85.73
2023-07-27T12:17:01.874Z,85.79
2023-07-27T12:18:41.644Z,85.81
2023-07-27T12:20:21.416Z,85.8
2023-07-27T12:22:01.197Z,85.99
2023-07-27T12:23:40.977Z,85.76
2023-07-27T12:25:20.876Z,85.67
2023-07-27T12:27:00.552Z,85.63
2023-07-27T12:28:40.270Z,85.69
2023-07-27T12:30:20.109Z,85.84
2023-07-27T12:31:59.937Z,85.9
2023-07-27T12:33:39.739Z,86.22
2023-07-27T12:35:19.380Z,86.08
2023-07-27T12:36:59.130Z,85.64
2023-07-27T12:38:38.916Z,85.42
2023-07-27T12:40:18.668Z,85.48
2023-07-27T12:41:58.458Z,85.53
2023-07-27T12:43:38.210Z,85.68
2023-07-27T12:45:17.989Z,85.72
2023-07-27T12:46:57.758Z,85.75
2023-07-27T12:48:37.512Z,85.51
2023-07-27T12:50:17.292Z,85.28
2023-07-27T12:51:57.055Z,85.08
2023-07-27T12:53:36.820Z,84.64
2023-07-27T12:55:16.608Z,84.2
2023-07-27T12:56:56.376Z,84.32
2023-07-27T12:58:36.130Z,84.98
2023-07-27T13:00:15.909Z,85.56
2023-07-27T13:01:55.675Z,85.97
2023-07-27T13:03:35.442Z,85.83
2023-07-27T13:05:15.212Z,85.8
2023-07-27T13:06:54.991Z,85.95
2023-07-27T13:08:34.765Z,85.95
2023-07-27T13:10:14.516Z,85.98
2023-07-27T13:11:54.304Z,85.78
2023-07-27T13:13:34.076Z,85.76
2023-07-27T13:15:13.833Z,85.61
2023-07-27T13:16:53.616Z,85.37
2023-07-27T13:18:33.379Z,85.04
2023-07-27T13:20:13.155Z,84.7
2023-07-27T13:21:52.923Z,84.34
2023-07-27T13:23:32.689Z,83.75
2023-07-27T13:25:12.479Z,83.34
2023-07-27T13:26:52.241Z,83.06
2023-07-27T13:28:32.003Z,82.78
2023-07-27T13:30:11.775Z,82.52
2023-07-27T13:31:51.553Z,82.47
2023-07-27T13:33:31.320Z,82.77
2023-07-27T13:35:11.079Z,82.89
2023-07-27T13:36:50.857Z,82.9
2023-07-27T13:38:30.615Z,82.67
2023-07-27T13:40:10.393Z,82.27
2023-07-27T13:41:50.168Z,81.87
2023-07-27T13:43:29.976Z,82.02
2023-07-27T13:45:09.715Z,82.69
2023-07-27T13:46:49.474Z,83.27
2023-07-27T13:48:29.245Z,83.74
2023-07-27T13:50:09.186Z,83.9
2023-07-27T13:51:48.801Z,84.16
2023-07-27T13:53:28.578Z,84.38
2023-07-27T13:55:08.466Z,84.61
2023-07-27T13:56:48.100Z,84.68
2023-07-27T13:58:28.006Z,84.06
2023-07-27T14:00:07.643Z,83.62
2023-07-27T14:01:47.456Z,83.22
2023-07-27T14:03:27.190Z,82.63
2023-07-27T14:05:06.947Z,82.02
2023-07-27T14:06:46.769Z,81.54
2023-07-27T14:08:26.487Z,80.62
2023-07-27T14:10:06.256Z,79.12
2023-07-27T14:11:46.101Z,77.33
2023-07-27T14:13:25.859Z,77.08
2023-07-27T14:15:05.650Z,77.47
2023-07-27T14:16:45.353Z,78.69
2023-07-27T14:18:25.112Z,81.01
2023-07-27T14:20:04.883Z,83.24
2023-07-27T14:21:44.671Z,84.69
2023-07-27T14:23:24.432Z,85.76
2023-07-27T14:25:04.216Z,86.4
2023-07-27T14:26:43.982Z,86.93
2023-07-27T14:28:23.765Z,86.93
2023-07-27T14:30:03.524Z,86.25
2023-07-27T14:31:43.395Z,85.11
2023-07-27T14:33:23.063Z,84.15
2023-07-27T14:35:02.845Z,83.72
2023-07-27T14:36:42.607Z,83.92
2023-07-27T14:38:22.360Z,84.46
2023-07-27T14:40:02.131Z,85.1
2023-07-27T14:41:41.898Z,85.19
2023-07-27T14:43:21.668Z,84.91
2023-07-27T14:45:01.460Z,84.64
2023-07-27T14:46:41.213Z,84.5
2023-07-27T14:48:20.973Z,84.52
2023-07-27T14:50:00.803Z,84.47
2023-07-27T14:51:40.556Z,84.51
2023-07-27T14:53:20.320Z,84.37
2023-07-27T14:55:00.059Z,84.09
2023-07-27T14:56:39.935Z,83.68
2023-07-27T14:58:19.611Z,83.5
2023-07-27T14:59:59.390Z,83.21
2023-07-27T15:01:39.172Z,82.88
2023-07-27T15:03:18.911Z,82.67
2023-07-27T15:04:58.694Z,82.48
2023-07-27T15:06:38.459Z,82.89
2023-07-27T15:08:18.241Z,83.35
2023-07-27T15:09:58.003Z,83.86
2023-07-27T15:11:37.773Z,84.4
2023-07-27T15:13:17.545Z,84.27
2023-07-27T15:14:57.313Z,85.2
2023-07-27T15:16:37.077Z,84.28
2023-07-27T15:18:16.860Z,83.32
2023-07-27T15:19:56.628Z,82.9
2023-07-27T15:21:36.473Z,83.01
2023-07-27T15:23:16.195Z,83.51
2023-07-27T15:24:55.939Z,84.17
2023-07-27T15:26:35.714Z,84.52
2023-07-27T15:28:15.481Z,84.44
2023-07-27T15:29:55.247Z,84.15
2023-07-27T15:31:35.016Z,83.65
2023-07-27T15:33:14.805Z,82.48
2023-07-27T15:34:54.555Z,81.98
2023-07-27T15:36:34.323Z,82.04
2023-07-27T15:38:14.102Z,82
2023-07-27T15:39:53.880Z,82.05
2023-07-27T15:41:33.641Z,81.9
2023-07-27T15:43:13.413Z,82.17
2023-07-27T15:44:53.179Z,82.33
2023-07-27T15:46:32.954Z,82.05
2023-07-27T15:48:12.721Z,81.93
2023-07-27T15:49:52.485Z,81.61
2023-07-27T15:51:32.261Z,81.43
2023-07-27T15:53:12.026Z,81.28
2023-07-27T15:54:51.792Z,81.46
2023-07-27T15:56:31.568Z,81.17
2023-07-27T15:58:11.338Z,80.98
2023-07-27T15:59:51.113Z,80.91
2023-07-27T16:01:30.887Z,80.32
2023-07-27T16:03:10.664Z,79.51
2023-07-27T16:04:50.427Z,79.18
2023-07-27T16:06:30.205Z,78.94
2023-07-27T16:08:09.971Z,78.79
2023-07-27T16:09:49.735Z,79.78
2023-07-27T16:11:29.505Z,80.01
2023-07-27T16:13:09.274Z,79.53
2023-07-27T16:14:49.053Z,77.9
2023-07-27T16:16:28.834Z,74.65
2023-07-27T16:18:08.584Z,73.43
2023-07-27T16:19:48.357Z,71.41
2023-07-27T16:21:28.121Z,75.58
2023-07-27T16:23:07.895Z,75.76
2023-07-27T16:24:47.663Z,76.65
2023-07-27T16:26:27.439Z,78.26
2023-07-27T16:28:07.210Z,79.05
2023-07-27T16:29:46.971Z,78.68
2023-07-27T16:31:26.754Z,78.01
2023-07-27T16:33:06.531Z,78.26
2023-07-27T16:34:46.296Z,78.76
2023-07-27T16:36:26.108Z,78.69
2023-07-27T16:38:05.833Z,79.51
2023-07-27T16:39:45.599Z,77.29
2023-07-27T16:41:25.382Z,77.26
2023-07-27T16:43:05.143Z,77.9
2023-07-27T16:44:44.908Z,76.94
2023-07-27T16:46:24.685Z,76.89
2023-07-27T16:48:04.599Z,76.37
2023-07-27T16:49:44.263Z,75.19
2023-07-27T16:51:24.053Z,73.72
2023-07-27T16:53:03.785Z,73.65
2023-07-27T16:54:43.523Z,75.19
2023-07-27T16:56:23.368Z,75.03
2023-07-27T16:58:03.302Z,73.86
2023-07-27T16:59:42.894Z,74.74
2023-07-27T17:01:22.628Z,75.81
2023-07-27T17:03:02.431Z,75.86
2023-07-27T17:04:42.250Z,77.33
2023-07-27T17:06:21.915Z,76.37
2023-07-27T17:08:01.735Z,75.12
2023-07-27T17:09:41.573Z,73.97
2023-07-27T17:11:21.256Z,74.08
2023-07-27T17:13:01.013Z,71.87
2023-07-27T17:14:40.804Z,68.57
2023-07-27T17:16:20.579Z,63.42
2023-07-27T17:18:00.326Z,70.89
2023-07-27T17:19:40.157Z,73.08
2023-07-27T17:21:19.952Z,68.66
2023-07-27T17:22:59.645Z,64.5
2023-07-27T17:24:39.441Z,53.4
2023-07-27T17:26:19.177Z,41.78
2023-07-27T17:27:58.951Z,33.75
2023-07-27T17:29:38.710Z,33.39
2023-07-27T17:31:18.643Z,33.36
2023-07-27T17:32:58.263Z,34.43
2023-07-27T17:34:38.031Z,30.28
2023-07-27T17:36:17.854Z,28.2
2023-07-27T17:37:57.545Z,28.15
2023-07-27T17:39:37.331Z,28.15
2023-07-27T17:41:17.095Z,28.13
2023-07-27T17:42:56.875Z,28.13
2023-07-27T17:44:36.650Z,28.1
2023-07-27T17:46:16.403Z,28.02
2023-07-27T17:47:56.174Z,28.04
2023-07-27T17:49:35.950Z,28.02
2023-07-27T17:51:15.755Z,28.02
2023-07-27T17:52:55.467Z,27.99
2023-07-27T17:54:35.252Z,27.96
2023-07-27T17:56:15.022Z,27.95
2023-07-27T17:57:54.783Z,27.92
2023-07-27T17:59:34.532Z,27.92
2023-07-27T18:01:14.325Z,27.92
2023-07-27T18:02:54.096Z,34.53
2023-07-27T18:04:33.856Z,34.09
2023-07-27T18:06:13.711Z,27.9
2023-07-27T18:07:53.412Z,27.9
2023-07-27T18:09:33.182Z,27.86
2023-07-27T18:11:12.963Z,27.7
2023-07-27T18:12:52.705Z,27.82
2023-07-27T18:14:32.451Z,27.79
2023-07-27T18:16:12.240Z,27.75
2023-07-27T18:17:52.019Z,27.71
2023-07-27T18:19:31.774Z,27.69
2023-07-27T18:21:11.549Z,27.67
2023-07-27T18:22:51.320Z,27.65
2023-07-27T18:24:31.268Z,27.61
2023-07-27T18:26:10.858Z,27.59
2023-07-27T18:27:50.599Z,27.58
2023-07-27T18:29:30.516Z,27.57
2023-07-27T18:31:10.508Z,27.54
2023-07-27T18:32:50.207Z,27.54
2023-07-27T18:34:29.979Z,27.52
2023-07-27T18:36:09.594Z,27.37
2023-07-27T18:37:49.295Z,27.47
2023-07-27T18:39:29.145Z,27.45
2023-07-27T18:41:08.755Z,27.44
2023-07-27T18:42:48.718Z,27.42
2023-07-27T18:44:28.493Z,27.4
2023-07-27T18:46:08.205Z,27.4
2023-07-27T18:47:47.971Z,27.38
2023-07-27T18:49:27.763Z,27.37
2023-07-27T18:51:07.550Z,27.35
2023-07-27T18:52:47.198Z,27.36
2023-07-27T18:54:26.900Z,27.34
2023-07-27T18:56:06.753Z,27.32
2023-07-27T18:57:46.521Z,27.31
2023-07-27T19:01:06.123Z,27.24
2023-07-27T19:02:45.791Z,27.24
2023-07-27T19:04:25.503Z,29.09
2023-07-27T19:06:05.279Z,27.14
2023-07-27T19:07:45.132Z,27.08
2023-07-27T19:09:24.864Z,27.03
2023-07-27T19:11:04.562Z,27.13
2023-07-27T19:12:44.373Z,27.09
2023-07-27T19:14:24.137Z,27.12
2023-07-27T19:16:03.876Z,27.12
2023-07-27T19:17:43.716Z,26.83
2023-07-27T19:19:23.614Z,20.48
2023-07-27T19:21:03.241Z,16.12
2023-07-27T19:22:42.949Z,11.94
2023-07-27T19:24:22.732Z,10.25
2023-07-27T19:26:02.464Z,9.59
2023-07-27T19:27:42.265Z,9.76
2023-07-27T19:29:22.164Z,8.09
2023-07-27T19:31:01.976Z,6.16
2023-07-27T19:32:41.581Z,6.21
2023-07-27T19:34:21.342Z,4.88
2023-07-27T19:36:01.244Z,5.03
2023-07-27T19:37:40.864Z,3.55
2023-07-27T19:39:20.640Z,2.8
2023-07-27T19:41:00.378Z,2.24
2023-07-27T19:42:40.253Z,1.56
2023-07-27T19:44:19.925Z,1.2
2023-07-27T19:45:59.729Z,1.02
2023-07-27T19:47:39.524Z,0.83
2023-07-27T19:49:19.209Z,0.72
2023-07-27T19:50:59.199Z,0.58
2023-07-27T19:52:38.812Z,0.52
2023-07-27T19:54:18.577Z,0.55
2023-07-27T19:55:58.366Z,0.51
2023-07-27T19:57:38.100Z,0.48
2023-07-27T19:59:17.905Z,0.41
2023-07-27T20:00:57.597Z,0.4
2023-07-27T20:02:37.362Z,0.35
2023-07-27T20:04:17.179Z,0.38
2023-07-27T20:05:57.004Z,0.37
2023-07-27T20:07:36.794Z,0.32
2023-07-27T20:09:16.607Z,0.32
2023-07-27T20:10:56.212Z,0.31
2023-07-27T20:12:36.006Z,0.3
2023-07-27T20:14:15.724Z,0.28
2023-07-27T20:15:55.506Z,0.28
2023-07-27T20:17:35.255Z,0.27
2023-07-27T20:19:15.040Z,0.28
2023-07-27T20:20:54.813Z,0.27
2023-07-27T20:22:34.632Z,0.27
2023-07-27T20:24:14.323Z,0.23
2023-07-27T20:25:54.142Z,0.25
2023-07-27T20:27:33.989Z,0.24
2023-07-27T20:29:13.636Z,0.24
2023-07-27T20:30:53.429Z,0.24
2023-07-27T20:32:33.189Z,0.26
2023-07-27T20:34:12.966Z,0.26
2023-07-27T20:35:52.707Z,0.24
2023-07-27T20:37:32.536Z,0.24
2023-07-27T20:39:12.253Z,0.25
2023-07-27T20:40:52.005Z,0.23
2023-07-27T20:44:11.668Z,0.23
2023-07-27T20:45:51.311Z,0.25
2023-07-27T20:47:31.178Z,0.24
2023-07-27T20:49:10.864Z,0.23
2023-07-27T20:50:50.660Z,0.24
2023-07-27T20:52:30.392Z,0.23
2023-07-27T20:54:10.147Z,0.26
2023-07-27T20:55:49.982Z,0.23
2023-07-27T20:57:29.757Z,0.25
2023-07-27T20:59:09.734Z,0.26
2023-07-27T21:00:49.296Z,0.23
2023-07-27T21:02:28.991Z,0.25
2023-07-27T21:04:08.813Z,0.22
2023-07-27T21:05:48.531Z,0.2
2023-07-27T21:07:28.404Z,0.2
2023-07-27T21:09:08.058Z,0.22
2023-07-27T21:10:47.938Z,0.2
2023-07-27T21:12:27.600Z,0.24
2023-07-27T21:14:07.352Z,0.22
2023-07-27T21:15:47.142Z,0.21
2023-07-27T21:17:26.893Z,0.23
2023-07-27T21:20:46.735Z,0.21
2023-07-27T21:22:26.310Z,0.23
2023-07-27T21:24:06.120Z,0.23
2023-07-27T21:25:45.947Z,0.2
2023-07-27T21:27:25.716Z,0.22
2023-07-27T21:29:05.375Z,0.24
2023-07-27T21:30:45.121Z,0.21
2023-07-27T21:34:04.709Z,0.23
2023-07-27T21:35:44.410Z,0.23
2023-07-27T21:37:24.211Z,0.23
2023-07-27T21:39:04.149Z,0.22
2023-07-27T21:40:43.737Z,0.23
2023-07-27T21:42:23.482Z,0.23
2023-07-27T21:44:03.367Z,0.25
2023-07-27T21:45:42.962Z,0.22
2023-07-27T21:47:22.880Z,0.22
2023-07-27T21:49:02.590Z,0.24